sensor_id;sensor_type;location;lat;lon;timestamp;temperature;humidity
12386;DHT22;6257;57.634;18.310;2023-05-27T00:01:02;6.50;99.90
12386;DHT22;6257;57.634;18.310;2023-05-27T00:03:29;6.50;99.90
12386;DHT22;6257;57.634;18.310;2023-05-27T00:05:56;6.50;99.90
12386;DHT22;6257;57.634;18.310;2023-05-27T00:08:25;6.40;99.90
12386;DHT22;6257;57.634;18.310;2023-05-27T00:10:52;6.40;99.90
12386;DHT22;6257;57.634;18.310;2023-05-27T00:13:19;6.40;99.90
12386;DHT22;6257;57.634;18.310;2023-05-27T00:15:46;6.40;99.90
12386;DHT22;6257;57.634;18.310;2023-05-27T00:18:13;6.40;99.90
12386;DHT22;6257;57.634;18.310;2023-05-27T00:20:41;6.40;99.90
12386;DHT22;6257;57.634;18.310;2023-05-27T00:23:08;6.40;99.90
12386;DHT22;6257;57.634;18.310;2023-05-27T00:25:37;6.30;99.90
12386;DHT22;6257;57.634;18.310;2023-05-27T00:28:04;6.20;99.90
12386;DHT22;6257;57.634;18.310;2023-05-27T00:30:31;10.10;99.90
12386;DHT22;6257;57.634;18.310;2023-05-27T00:32:58;6.10;99.90
12386;DHT22;6257;57.634;18.310;2023-05-27T00:37:52;6.10;99.90
12386;DHT22;6257;57.634;18.310;2023-05-27T00:40:22;6.10;99.90
12386;DHT22;6257;57.634;18.310;2023-05-27T00:45:20;6.10;99.90
12386;DHT22;6257;57.634;18.310;2023-05-27T00:50:16;6.10;99.90
12386;DHT22;6257;57.634;18.310;2023-05-27T00:52:43;6.10;99.90
12386;DHT22;6257;57.634;18.310;2023-05-27T00:57:37;6.00;99.90
12386;DHT22;6257;57.634;18.310;2023-05-27T01:00:08;5.80;99.90
12386;DHT22;6257;57.634;18.310;2023-05-27T01:02:37;5.90;99.90
12386;DHT22;6257;57.634;18.310;2023-05-27T01:05:07;5.90;99.90
12386;DHT22;6257;57.634;18.310;2023-05-27T01:07:44;5.80;99.90
12386;DHT22;6257;57.634;18.310;2023-05-27T01:10:17;5.80;99.90
12386;DHT22;6257;57.634;18.310;2023-05-27T01:12:50;5.70;99.90
12386;DHT22;6257;57.634;18.310;2023-05-27T01:17:53;5.60;99.90
12386;DHT22;6257;57.634;18.310;2023-05-27T01:25:19;5.60;99.90
12386;DHT22;6257;57.634;18.310;2023-05-27T01:27:46;5.60;99.90
12386;DHT22;6257;57.634;18.310;2023-05-27T01:32:45;5.50;99.90
12386;DHT22;6257;57.634;18.310;2023-05-27T01:35:17;5.40;99.90
12386;DHT22;6257;57.634;18.310;2023-05-27T01:37:45;5.40;99.90
12386;DHT22;6257;57.634;18.310;2023-05-27T01:40:14;5.40;99.90
12386;DHT22;6257;57.634;18.310;2023-05-27T01:42:42;5.40;99.90
12386;DHT22;6257;57.634;18.310;2023-05-27T01:45:11;5.40;99.90
12386;DHT22;6257;57.634;18.310;2023-05-27T01:47:38;5.40;99.90
12386;DHT22;6257;57.634;18.310;2023-05-27T01:50:07;5.30;99.90
12386;DHT22;6257;57.634;18.310;2023-05-27T01:55:02;5.30;99.90
12386;DHT22;6257;57.634;18.310;2023-05-27T01:59:59;4.90;99.90
12386;DHT22;6257;57.634;18.310;2023-05-27T02:02:26;5.30;99.90
12386;DHT22;6257;57.634;18.310;2023-05-27T02:04:53;5.30;99.90
12386;DHT22;6257;57.634;18.310;2023-05-27T02:07:20;5.30;99.90
12386;DHT22;6257;57.634;18.310;2023-05-27T02:09:48;5.30;99.90
12386;DHT22;6257;57.634;18.310;2023-05-27T02:12:16;5.30;99.90
12386;DHT22;6257;57.634;18.310;2023-05-27T02:14:44;5.30;99.90
12386;DHT22;6257;57.634;18.310;2023-05-27T02:17:11;5.30;99.90
12386;DHT22;6257;57.634;18.310;2023-05-27T02:19:40;5.20;99.90
12386;DHT22;6257;57.634;18.310;2023-05-27T02:22:07;5.20;99.90
12386;DHT22;6257;57.634;18.310;2023-05-27T02:24:34;5.20;99.90
12386;DHT22;6257;57.634;18.310;2023-05-27T02:27:01;5.20;99.90
12386;DHT22;6257;57.634;18.310;2023-05-27T02:29:28;5.20;99.90
12386;DHT22;6257;57.634;18.310;2023-05-27T02:31:57;5.20;99.90
12386;DHT22;6257;57.634;18.310;2023-05-27T02:34:24;5.20;99.90
12386;DHT22;6257;57.634;18.310;2023-05-27T02:36:51;5.20;99.90
12386;DHT22;6257;57.634;18.310;2023-05-27T02:39:18;5.20;99.90
12386;DHT22;6257;57.634;18.310;2023-05-27T02:41:45;5.20;99.90
12386;DHT22;6257;57.634;18.310;2023-05-27T02:44:12;5.20;99.90
12386;DHT22;6257;57.634;18.310;2023-05-27T02:46:40;5.20;99.90
12386;DHT22;6257;57.634;18.310;2023-05-27T02:51:36;5.30;99.90
12386;DHT22;6257;57.634;18.310;2023-05-27T02:54:03;5.20;99.90
12386;DHT22;6257;57.634;18.310;2023-05-27T02:56:30;5.20;99.90
12386;DHT22;6257;57.634;18.310;2023-05-27T02:58:57;5.20;99.90
12386;DHT22;6257;57.634;18.310;2023-05-27T03:03:51;5.20;99.90
12386;DHT22;6257;57.634;18.310;2023-05-27T03:08:47;5.30;99.90
12386;DHT22;6257;57.634;18.310;2023-05-27T03:11:14;5.40;99.90
12386;DHT22;6257;57.634;18.310;2023-05-27T03:13:41;5.40;99.90
12386;DHT22;6257;57.634;18.310;2023-05-27T03:16:08;5.40;99.90
12386;DHT22;6257;57.634;18.310;2023-05-27T03:23:33;5.60;99.90
12386;DHT22;6257;57.634;18.310;2023-05-27T03:26:00;5.70;99.90
12386;DHT22;6257;57.634;18.310;2023-05-27T03:28:27;5.80;99.90
12386;DHT22;6257;57.634;18.310;2023-05-27T03:30:54;7.80;99.90
12386;DHT22;6257;57.634;18.310;2023-05-27T03:33:22;6.30;99.90
12386;DHT22;6257;57.634;18.310;2023-05-27T03:35:49;6.40;99.90
12386;DHT22;6257;57.634;18.310;2023-05-27T03:38:16;6.60;99.90
12386;DHT22;6257;57.634;18.310;2023-05-27T03:43:12;7.20;99.90
12386;DHT22;6257;57.634;18.310;2023-05-27T03:45:39;7.40;99.90
12386;DHT22;6257;57.634;18.310;2023-05-27T03:48:06;7.70;99.90
12386;DHT22;6257;57.634;18.310;2023-05-27T03:50:34;7.90;99.90
12386;DHT22;6257;57.634;18.310;2023-05-27T03:53:01;8.10;99.90
12386;DHT22;6257;57.634;18.310;2023-05-27T03:55:28;8.30;99.90
12386;DHT22;6257;57.634;18.310;2023-05-27T04:00:24;8.60;99.90
12386;DHT22;6257;57.634;18.310;2023-05-27T04:05:19;8.80;99.90
12386;DHT22;6257;57.634;18.310;2023-05-27T04:07:46;8.90;99.90
12386;DHT22;6257;57.634;18.310;2023-05-27T04:10:13;9.10;99.90
12386;DHT22;6257;57.634;18.310;2023-05-27T04:12:40;9.20;99.90
12386;DHT22;6257;57.634;18.310;2023-05-27T04:15:09;9.30;99.90
12386;DHT22;6257;57.634;18.310;2023-05-27T04:17:36;9.40;99.90
12386;DHT22;6257;57.634;18.310;2023-05-27T04:22:39;9.80;99.90
12386;DHT22;6257;57.634;18.310;2023-05-27T04:25:07;10.00;99.90
12386;DHT22;6257;57.634;18.310;2023-05-27T04:27:34;10.20;99.90
12386;DHT22;6257;57.634;18.310;2023-05-27T04:30:02;10.40;99.90
12386;DHT22;6257;57.634;18.310;2023-05-27T04:32:31;10.70;99.90
12386;DHT22;6257;57.634;18.310;2023-05-27T04:34:58;10.80;99.90
12386;DHT22;6257;57.634;18.310;2023-05-27T04:37:26;10.90;99.90
12386;DHT22;6257;57.634;18.310;2023-05-27T04:39:54;11.00;99.90
12386;DHT22;6257;57.634;18.310;2023-05-27T04:42:22;11.10;99.90
12386;DHT22;6257;57.634;18.310;2023-05-27T04:44:50;11.10;99.90
12386;DHT22;6257;57.634;18.310;2023-05-27T04:47:17;11.10;99.90
12386;DHT22;6257;57.634;18.310;2023-05-27T04:49:48;11.20;99.90
12386;DHT22;6257;57.634;18.310;2023-05-27T04:52:15;11.30;99.90
12386;DHT22;6257;57.634;18.310;2023-05-27T04:54:46;11.30;99.90
12386;DHT22;6257;57.634;18.310;2023-05-27T04:57:14;11.30;99.90
12386;DHT22;6257;57.634;18.310;2023-05-27T04:59:44;11.30;99.90
12386;DHT22;6257;57.634;18.310;2023-05-27T05:02:43;11.40;99.90
12386;DHT22;6257;57.634;18.310;2023-05-27T05:05:14;11.40;99.90
12386;DHT22;6257;57.634;18.310;2023-05-27T05:07:43;11.40;99.90
12386;DHT22;6257;57.634;18.310;2023-05-27T05:10:11;11.40;99.90
12386;DHT22;6257;57.634;18.310;2023-05-27T05:12:38;11.50;99.90
12386;DHT22;6257;57.634;18.310;2023-05-27T05:15:07;11.60;99.90
12386;DHT22;6257;57.634;18.310;2023-05-27T05:17:34;11.60;99.90
12386;DHT22;6257;57.634;18.310;2023-05-27T05:20:02;11.60;99.90
12386;DHT22;6257;57.634;18.310;2023-05-27T05:24:59;11.70;99.90
12386;DHT22;6257;57.634;18.310;2023-05-27T05:27:26;11.70;99.90
12386;DHT22;6257;57.634;18.310;2023-05-27T05:29:53;11.50;99.90
12386;DHT22;6257;57.634;18.310;2023-05-27T05:34:48;11.40;99.90
12386;DHT22;6257;57.634;18.310;2023-05-27T05:37:15;11.40;99.90
12386;DHT22;6257;57.634;18.310;2023-05-27T05:39:43;11.50;99.90
12386;DHT22;6257;57.634;18.310;2023-05-27T05:42:10;11.60;99.90
12386;DHT22;6257;57.634;18.310;2023-05-27T05:44:37;11.70;99.90
12386;DHT22;6257;57.634;18.310;2023-05-27T05:47:05;11.80;99.90
12386;DHT22;6257;57.634;18.310;2023-05-27T05:49:32;12.00;99.90
12386;DHT22;6257;57.634;18.310;2023-05-27T05:51:59;12.00;99.90
12386;DHT22;6257;57.634;18.310;2023-05-27T05:54:26;12.20;99.90
12386;DHT22;6257;57.634;18.310;2023-05-27T05:56:54;12.20;99.90
12386;DHT22;6257;57.634;18.310;2023-05-27T05:59:21;12.30;99.90
12386;DHT22;6257;57.634;18.310;2023-05-27T06:01:48;12.30;99.90
12386;DHT22;6257;57.634;18.310;2023-05-27T06:04:15;12.40;99.90
12386;DHT22;6257;57.634;18.310;2023-05-27T06:06:42;12.40;99.90
12386;DHT22;6257;57.634;18.310;2023-05-27T06:09:09;12.50;99.90
12386;DHT22;6257;57.634;18.310;2023-05-27T06:11:36;12.70;99.90
12386;DHT22;6257;57.634;18.310;2023-05-27T06:16:32;12.80;99.90
12386;DHT22;6257;57.634;18.310;2023-05-27T06:19:01;12.80;99.90
12386;DHT22;6257;57.634;18.310;2023-05-27T06:21:28;12.70;99.90
12386;DHT22;6257;57.634;18.310;2023-05-27T06:23:57;12.90;99.90
12386;DHT22;6257;57.634;18.310;2023-05-27T06:26:24;13.00;99.90
12386;DHT22;6257;57.634;18.310;2023-05-27T06:28:53;13.10;99.90
12386;DHT22;6257;57.634;18.310;2023-05-27T06:33:49;13.40;99.90
12386;DHT22;6257;57.634;18.310;2023-05-27T06:36:16;13.50;99.90
12386;DHT22;6257;57.634;18.310;2023-05-27T06:38:44;13.50;99.90
12386;DHT22;6257;57.634;18.310;2023-05-27T06:41:11;13.50;99.90
12386;DHT22;6257;57.634;18.310;2023-05-27T06:43:38;13.50;99.90
12386;DHT22;6257;57.634;18.310;2023-05-27T06:46:05;13.60;99.90
12386;DHT22;6257;57.634;18.310;2023-05-27T06:48:34;13.60;99.90
12386;DHT22;6257;57.634;18.310;2023-05-27T06:51:01;13.70;99.90
12386;DHT22;6257;57.634;18.310;2023-05-27T06:53:28;13.70;99.30
12386;DHT22;6257;57.634;18.310;2023-05-27T06:55:55;13.70;99.20
12386;DHT22;6257;57.634;18.310;2023-05-27T06:58:23;13.90;99.20
12386;DHT22;6257;57.634;18.310;2023-05-27T07:00:50;14.00;98.90
12386;DHT22;6257;57.634;18.310;2023-05-27T07:03:17;14.20;98.00
12386;DHT22;6257;57.634;18.310;2023-05-27T07:08:13;14.50;96.60
12386;DHT22;6257;57.634;18.310;2023-05-27T07:10:40;14.70;96.00
12386;DHT22;6257;57.634;18.310;2023-05-27T07:13:07;14.90;95.80
12386;DHT22;6257;57.634;18.310;2023-05-27T07:15:34;15.10;95.20
12386;DHT22;6257;57.634;18.310;2023-05-27T07:18:01;15.50;95.10
12386;DHT22;6257;57.634;18.310;2023-05-27T07:20:28;15.80;92.40
12386;DHT22;6257;57.634;18.310;2023-05-27T07:22:57;15.90;91.60
12386;DHT22;6257;57.634;18.310;2023-05-27T07:25:24;16.10;92.80
12386;DHT22;6257;57.634;18.310;2023-05-27T07:27:51;16.20;90.50
12386;DHT22;6257;57.634;18.310;2023-05-27T07:30:18;16.50;91.10
12386;DHT22;6257;57.634;18.310;2023-05-27T07:32:46;16.80;90.70
12386;DHT22;6257;57.634;18.310;2023-05-27T07:35:13;16.90;90.00
12386;DHT22;6257;57.634;18.310;2023-05-27T07:37:40;16.90;89.50
12386;DHT22;6257;57.634;18.310;2023-05-27T07:40:09;17.30;84.00
12386;DHT22;6257;57.634;18.310;2023-05-27T07:42:36;17.50;87.40
12386;DHT22;6257;57.634;18.310;2023-05-27T07:45:03;17.80;83.40
12386;DHT22;6257;57.634;18.310;2023-05-27T07:47:31;18.20;85.00
12386;DHT22;6257;57.634;18.310;2023-05-27T07:49:58;18.60;81.90
12386;DHT22;6257;57.634;18.310;2023-05-27T07:52:25;19.10;78.60
12386;DHT22;6257;57.634;18.310;2023-05-27T07:54:52;19.40;77.30
12386;DHT22;6257;57.634;18.310;2023-05-27T07:57:20;18.90;80.80
12386;DHT22;6257;57.634;18.310;2023-05-27T07:59:47;18.90;78.90
12386;DHT22;6257;57.634;18.310;2023-05-27T08:02:14;19.50;78.80
12386;DHT22;6257;57.634;18.310;2023-05-27T08:04:42;19.80;80.80
12386;DHT22;6257;57.634;18.310;2023-05-27T08:07:10;20.20;81.90
12386;DHT22;6257;57.634;18.310;2023-05-27T08:09:37;20.30;80.50
12386;DHT22;6257;57.634;18.310;2023-05-27T08:12:05;20.50;84.00
12386;DHT22;6257;57.634;18.310;2023-05-27T08:14:34;20.90;82.30
12386;DHT22;6257;57.634;18.310;2023-05-27T08:17:01;20.90;83.80
12386;DHT22;6257;57.634;18.310;2023-05-27T08:19:28;21.10;80.20
12386;DHT22;6257;57.634;18.310;2023-05-27T08:21:56;20.60;78.50
12386;DHT22;6257;57.634;18.310;2023-05-27T08:24:23;20.50;79.70
12386;DHT22;6257;57.634;18.310;2023-05-27T08:26:50;20.40;80.90
12386;DHT22;6257;57.634;18.310;2023-05-27T08:29:17;20.50;81.00
12386;DHT22;6257;57.634;18.310;2023-05-27T08:31:46;19.90;83.90
12386;DHT22;6257;57.634;18.310;2023-05-27T08:34:13;19.40;81.60
12386;DHT22;6257;57.634;18.310;2023-05-27T08:36:40;19.00;85.70
12386;DHT22;6257;57.634;18.310;2023-05-27T08:39:07;19.20;85.40
12386;DHT22;6257;57.634;18.310;2023-05-27T08:41:35;19.40;83.50
12386;DHT22;6257;57.634;18.310;2023-05-27T08:44:03;19.50;85.90
12386;DHT22;6257;57.634;18.310;2023-05-27T08:46:30;19.50;82.80
12386;DHT22;6257;57.634;18.310;2023-05-27T08:51:27;18.90;90.00
12386;DHT22;6257;57.634;18.310;2023-05-27T08:53:54;18.70;92.60
12386;DHT22;6257;57.634;18.310;2023-05-27T08:56:22;18.40;94.20
12386;DHT22;6257;57.634;18.310;2023-05-27T08:58:51;18.10;92.20
12386;DHT22;6257;57.634;18.310;2023-05-27T09:01:21;17.40;92.00
12386;DHT22;6257;57.634;18.310;2023-05-27T09:03:48;17.10;93.00
12386;DHT22;6257;57.634;18.310;2023-05-27T09:06:17;16.90;92.50
12386;DHT22;6257;57.634;18.310;2023-05-27T09:08:44;16.80;91.40
12386;DHT22;6257;57.634;18.310;2023-05-27T09:11:20;16.60;90.90
12386;DHT22;6257;57.634;18.310;2023-05-27T09:13:47;16.60;91.80
12386;DHT22;6257;57.634;18.310;2023-05-27T09:16:19;16.60;92.10
12386;DHT22;6257;57.634;18.310;2023-05-27T09:18:46;16.50;90.40
12386;DHT22;6257;57.634;18.310;2023-05-27T09:21:13;16.10;90.30
12386;DHT22;6257;57.634;18.310;2023-05-27T09:23:41;15.70;89.00
12386;DHT22;6257;57.634;18.310;2023-05-27T09:26:09;15.70;88.30
12386;DHT22;6257;57.634;18.310;2023-05-27T09:28:37;15.50;88.70
12386;DHT22;6257;57.634;18.310;2023-05-27T09:31:05;15.40;87.90
12386;DHT22;6257;57.634;18.310;2023-05-27T09:33:34;15.50;89.40
12386;DHT22;6257;57.634;18.310;2023-05-27T09:36:02;15.40;90.00
12386;DHT22;6257;57.634;18.310;2023-05-27T09:38:29;15.40;89.80
12386;DHT22;6257;57.634;18.310;2023-05-27T09:40:58;15.40;89.50
12386;DHT22;6257;57.634;18.310;2023-05-27T09:43:26;15.40;88.90
12386;DHT22;6257;57.634;18.310;2023-05-27T09:45:57;15.50;84.50
12386;DHT22;6257;57.634;18.310;2023-05-27T09:48:26;15.50;88.70
12386;DHT22;6257;57.634;18.310;2023-05-27T09:50:56;15.50;84.90
12386;DHT22;6257;57.634;18.310;2023-05-27T09:53:24;15.40;83.80
12386;DHT22;6257;57.634;18.310;2023-05-27T09:55:52;15.40;84.80
12386;DHT22;6257;57.634;18.310;2023-05-27T09:58:23;15.60;86.00
12386;DHT22;6257;57.634;18.310;2023-05-27T10:03:20;15.60;83.60
12386;DHT22;6257;57.634;18.310;2023-05-27T10:05:49;15.60;83.70
12386;DHT22;6257;57.634;18.310;2023-05-27T10:08:17;15.60;83.90
12386;DHT22;6257;57.634;18.310;2023-05-27T10:10:44;15.60;84.80
12386;DHT22;6257;57.634;18.310;2023-05-27T10:13:13;15.60;84.40
12386;DHT22;6257;57.634;18.310;2023-05-27T10:15:46;15.60;84.70
12386;DHT22;6257;57.634;18.310;2023-05-27T10:18:22;15.80;84.90
12386;DHT22;6257;57.634;18.310;2023-05-27T10:20:50;13.90;82.30
12386;DHT22;6257;57.634;18.310;2023-05-27T10:23:20;15.90;82.00
12386;DHT22;6257;57.634;18.310;2023-05-27T10:25:48;15.90;85.20
12386;DHT22;6257;57.634;18.310;2023-05-27T10:28:26;16.10;82.80
12386;DHT22;6257;57.634;18.310;2023-05-27T10:31:03;16.10;82.00
12386;DHT22;6257;57.634;18.310;2023-05-27T10:33:33;16.20;78.20
12386;DHT22;6257;57.634;18.310;2023-05-27T10:36:06;16.00;77.90
12386;DHT22;6257;57.634;18.310;2023-05-27T10:38:34;16.00;79.80
12386;DHT22;6257;57.634;18.310;2023-05-27T10:41:02;16.00;77.90
12386;DHT22;6257;57.634;18.310;2023-05-27T10:43:30;16.20;75.20
12386;DHT22;6257;57.634;18.310;2023-05-27T10:46:09;16.30;76.50
12386;DHT22;6257;57.634;18.310;2023-05-27T10:48:38;16.30;78.90
12386;DHT22;6257;57.634;18.310;2023-05-27T10:51:06;16.30;74.40
12386;DHT22;6257;57.634;18.310;2023-05-27T10:53:35;16.40;74.80
12386;DHT22;6257;57.634;18.310;2023-05-27T10:56:02;16.50;70.50
12386;DHT22;6257;57.634;18.310;2023-05-27T10:58:33;16.60;76.40
12386;DHT22;6257;57.634;18.310;2023-05-27T11:01:06;16.80;74.60
12386;DHT22;6257;57.634;18.310;2023-05-27T11:03:34;17.00;73.30
12386;DHT22;6257;57.634;18.310;2023-05-27T11:06:02;17.10;71.60
12386;DHT22;6257;57.634;18.310;2023-05-27T11:08:31;17.00;72.20
12386;DHT22;6257;57.634;18.310;2023-05-27T11:11:02;17.00;71.60
12386;DHT22;6257;57.634;18.310;2023-05-27T11:13:31;17.10;70.00
12386;DHT22;6257;57.634;18.310;2023-05-27T11:15:59;17.00;72.50
12386;DHT22;6257;57.634;18.310;2023-05-27T11:18:35;17.10;70.10
12386;DHT22;6257;57.634;18.310;2023-05-27T11:21:03;17.10;72.90
12386;DHT22;6257;57.634;18.310;2023-05-27T11:23:37;17.10;71.30
12386;DHT22;6257;57.634;18.310;2023-05-27T11:26:15;17.00;69.20
12386;DHT22;6257;57.634;18.310;2023-05-27T11:28:46;16.70;70.50
12386;DHT22;6257;57.634;18.310;2023-05-27T11:31:14;16.70;71.90
12386;DHT22;6257;57.634;18.310;2023-05-27T11:33:44;16.70;72.80
12386;DHT22;6257;57.634;18.310;2023-05-27T11:36:12;17.00;71.80
12386;DHT22;6257;57.634;18.310;2023-05-27T11:38:50;17.10;69.70
12386;DHT22;6257;57.634;18.310;2023-05-27T11:41:18;17.00;70.20
12386;DHT22;6257;57.634;18.310;2023-05-27T11:43:49;17.00;69.60
12386;DHT22;6257;57.634;18.310;2023-05-27T11:46:17;17.10;71.30
12386;DHT22;6257;57.634;18.310;2023-05-27T11:51:12;17.30;72.50
12386;DHT22;6257;57.634;18.310;2023-05-27T11:53:40;17.50;71.10
12386;DHT22;6257;57.634;18.310;2023-05-27T11:56:08;17.50;69.60
12386;DHT22;6257;57.634;18.310;2023-05-27T11:58:35;17.40;67.10
12386;DHT22;6257;57.634;18.310;2023-05-27T12:01:03;17.40;67.10
12386;DHT22;6257;57.634;18.310;2023-05-27T12:03:32;17.30;69.70
12386;DHT22;6257;57.634;18.310;2023-05-27T12:06:01;17.40;70.50
12386;DHT22;6257;57.634;18.310;2023-05-27T12:08:29;17.60;69.40
12386;DHT22;6257;57.634;18.310;2023-05-27T12:10:56;17.70;67.60
12386;DHT22;6257;57.634;18.310;2023-05-27T12:13:23;17.70;64.90
12386;DHT22;6257;57.634;18.310;2023-05-27T12:15:51;17.80;66.20
12386;DHT22;6257;57.634;18.310;2023-05-27T12:18:18;17.90;68.30
12386;DHT22;6257;57.634;18.310;2023-05-27T12:20:45;18.00;70.80
12386;DHT22;6257;57.634;18.310;2023-05-27T12:23:14;18.20;69.50
12386;DHT22;6257;57.634;18.310;2023-05-27T12:25:41;18.30;68.90
12386;DHT22;6257;57.634;18.310;2023-05-27T12:28:08;18.50;69.80
12386;DHT22;6257;57.634;18.310;2023-05-27T12:30:36;18.60;68.60
12386;DHT22;6257;57.634;18.310;2023-05-27T12:33:04;18.60;68.00
12386;DHT22;6257;57.634;18.310;2023-05-27T12:35:32;18.60;67.70
12386;DHT22;6257;57.634;18.310;2023-05-27T12:37:59;18.60;68.00
12386;DHT22;6257;57.634;18.310;2023-05-27T12:40:28;18.60;68.70
12386;DHT22;6257;57.634;18.310;2023-05-27T12:42:55;18.60;67.70
12386;DHT22;6257;57.634;18.310;2023-05-27T12:45:23;18.60;68.60
12386;DHT22;6257;57.634;18.310;2023-05-27T12:47:51;18.60;65.40
12386;DHT22;6257;57.634;18.310;2023-05-27T12:50:19;18.50;67.80
12386;DHT22;6257;57.634;18.310;2023-05-27T12:52:47;18.40;68.80
12386;DHT22;6257;57.634;18.310;2023-05-27T12:55:16;18.50;68.60
12386;DHT22;6257;57.634;18.310;2023-05-27T12:57:45;18.60;69.00
12386;DHT22;6257;57.634;18.310;2023-05-27T13:00:13;18.60;70.50
12386;DHT22;6257;57.634;18.310;2023-05-27T13:02:41;18.60;69.30
12386;DHT22;6257;57.634;18.310;2023-05-27T13:05:09;18.60;68.70
12386;DHT22;6257;57.634;18.310;2023-05-27T13:07:37;18.50;68.90
12386;DHT22;6257;57.634;18.310;2023-05-27T13:10:06;18.50;71.30
12386;DHT22;6257;57.634;18.310;2023-05-27T13:12:34;18.60;70.60
12386;DHT22;6257;57.634;18.310;2023-05-27T13:17:29;18.90;70.60
12386;DHT22;6257;57.634;18.310;2023-05-27T13:19:56;18.80;71.00
12386;DHT22;6257;57.634;18.310;2023-05-27T13:22:24;18.80;70.50
12386;DHT22;6257;57.634;18.310;2023-05-27T13:24:52;18.90;69.90
12386;DHT22;6257;57.634;18.310;2023-05-27T13:27:19;18.80;71.30
12386;DHT22;6257;57.634;18.310;2023-05-27T13:29:46;18.80;69.10
12386;DHT22;6257;57.634;18.310;2023-05-27T13:34:43;18.70;70.20
12386;DHT22;6257;57.634;18.310;2023-05-27T13:37:10;18.80;70.50
12386;DHT22;6257;57.634;18.310;2023-05-27T13:39:37;18.80;72.20
12386;DHT22;6257;57.634;18.310;2023-05-27T13:42:08;18.80;71.30
12386;DHT22;6257;57.634;18.310;2023-05-27T13:44:35;18.70;70.20
12386;DHT22;6257;57.634;18.310;2023-05-27T13:47:02;18.60;71.10
12386;DHT22;6257;57.634;18.310;2023-05-27T13:49:31;18.70;72.50
12386;DHT22;6257;57.634;18.310;2023-05-27T13:51:58;18.70;70.40
12386;DHT22;6257;57.634;18.310;2023-05-27T13:54:25;18.80;69.70
12386;DHT22;6257;57.634;18.310;2023-05-27T13:56:53;18.70;68.50
12386;DHT22;6257;57.634;18.310;2023-05-27T13:59:20;18.60;69.70
12386;DHT22;6257;57.634;18.310;2023-05-27T14:01:47;18.60;71.80
12386;DHT22;6257;57.634;18.310;2023-05-27T14:04:15;18.60;69.50
12386;DHT22;6257;57.634;18.310;2023-05-27T14:06:44;18.50;69.30
12386;DHT22;6257;57.634;18.310;2023-05-27T14:09:11;18.50;69.50
12386;DHT22;6257;57.634;18.310;2023-05-27T14:11:38;18.50;69.10
12386;DHT22;6257;57.634;18.310;2023-05-27T14:14:06;18.50;70.60
12386;DHT22;6257;57.634;18.310;2023-05-27T14:16:33;18.40;69.80
12386;DHT22;6257;57.634;18.310;2023-05-27T14:19:00;18.40;69.80
12386;DHT22;6257;57.634;18.310;2023-05-27T14:21:28;18.30;70.80
12386;DHT22;6257;57.634;18.310;2023-05-27T14:23:56;18.30;70.20
12386;DHT22;6257;57.634;18.310;2023-05-27T14:26:25;18.30;69.10
12386;DHT22;6257;57.634;18.310;2023-05-27T14:28:52;18.20;69.30
12386;DHT22;6257;57.634;18.310;2023-05-27T14:31:19;18.20;69.70
12386;DHT22;6257;57.634;18.310;2023-05-27T14:36:13;18.40;71.40
12386;DHT22;6257;57.634;18.310;2023-05-27T14:38:41;18.40;70.50
12386;DHT22;6257;57.634;18.310;2023-05-27T14:43:36;18.40;70.50
12386;DHT22;6257;57.634;18.310;2023-05-27T14:46:03;18.30;72.40
12386;DHT22;6257;57.634;18.310;2023-05-27T14:48:30;18.30;71.90
12386;DHT22;6257;57.634;18.310;2023-05-27T14:50:57;18.20;71.10
12386;DHT22;6257;57.634;18.310;2023-05-27T14:53:24;18.20;72.10
12386;DHT22;6257;57.634;18.310;2023-05-27T14:55:51;18.20;71.30
12386;DHT22;6257;57.634;18.310;2023-05-27T15:00:49;18.10;69.50
12386;DHT22;6257;57.634;18.310;2023-05-27T15:03:16;18.00;68.20
12386;DHT22;6257;57.634;18.310;2023-05-27T15:05:43;17.90;67.80
12386;DHT22;6257;57.634;18.310;2023-05-27T15:08:10;17.70;69.00
12386;DHT22;6257;57.634;18.310;2023-05-27T15:10:41;17.70;68.40
12386;DHT22;6257;57.634;18.310;2023-05-27T15:13:09;17.60;68.50
12386;DHT22;6257;57.634;18.310;2023-05-27T15:15:38;17.50;69.60
12386;DHT22;6257;57.634;18.310;2023-05-27T15:18:06;17.60;70.30
12386;DHT22;6257;57.634;18.310;2023-05-27T15:20:33;17.60;68.60
12386;DHT22;6257;57.634;18.310;2023-05-27T15:23:00;17.60;68.50
12386;DHT22;6257;57.634;18.310;2023-05-27T15:25:28;17.60;68.70
12386;DHT22;6257;57.634;18.310;2023-05-27T15:27:55;17.60;70.00
12386;DHT22;6257;57.634;18.310;2023-05-27T15:35:18;17.40;69.40
12386;DHT22;6257;57.634;18.310;2023-05-27T15:37:46;17.30;70.80
12386;DHT22;6257;57.634;18.310;2023-05-27T15:40:13;17.30;70.20
12386;DHT22;6257;57.634;18.310;2023-05-27T15:42:40;17.30;70.80
12386;DHT22;6257;57.634;18.310;2023-05-27T15:45:08;17.30;71.10
12386;DHT22;6257;57.634;18.310;2023-05-27T15:47:35;17.30;71.10
12386;DHT22;6257;57.634;18.310;2023-05-27T15:50:04;17.20;71.20
12386;DHT22;6257;57.634;18.310;2023-05-27T15:52:31;17.20;71.80
12386;DHT22;6257;57.634;18.310;2023-05-27T15:54:58;17.10;70.80
12386;DHT22;6257;57.634;18.310;2023-05-27T15:57:25;17.10;72.30
12386;DHT22;6257;57.634;18.310;2023-05-27T15:59:53;17.20;73.10
12386;DHT22;6257;57.634;18.310;2023-05-27T16:02:20;17.20;74.40
12386;DHT22;6257;57.634;18.310;2023-05-27T16:04:47;17.20;72.50
12386;DHT22;6257;57.634;18.310;2023-05-27T16:07:16;17.10;74.20
12386;DHT22;6257;57.634;18.310;2023-05-27T16:09:43;17.00;73.60
12386;DHT22;6257;57.634;18.310;2023-05-27T16:12:12;17.00;74.30
12386;DHT22;6257;57.634;18.310;2023-05-27T16:14:39;17.00;73.40
12386;DHT22;6257;57.634;18.310;2023-05-27T16:17:07;16.90;73.20
12386;DHT22;6257;57.634;18.310;2023-05-27T16:19:34;16.90;74.80
12386;DHT22;6257;57.634;18.310;2023-05-27T16:22:01;16.90;74.00
12386;DHT22;6257;57.634;18.310;2023-05-27T16:26:57;16.90;74.30
12386;DHT22;6257;57.634;18.310;2023-05-27T16:29:24;16.90;72.90
12386;DHT22;6257;57.634;18.310;2023-05-27T16:31:52;16.70;73.80
12386;DHT22;6257;57.634;18.310;2023-05-27T16:34:19;16.70;73.30
12386;DHT22;6257;57.634;18.310;2023-05-27T16:36:46;16.60;74.70
12386;DHT22;6257;57.634;18.310;2023-05-27T16:39:13;16.60;73.70
12386;DHT22;6257;57.634;18.310;2023-05-27T16:41:42;16.50;73.30
12386;DHT22;6257;57.634;18.310;2023-05-27T16:44:09;16.40;74.70
12386;DHT22;6257;57.634;18.310;2023-05-27T16:46:36;16.40;74.20
12386;DHT22;6257;57.634;18.310;2023-05-27T16:49:03;16.40;74.00
12386;DHT22;6257;57.634;18.310;2023-05-27T16:51:30;16.30;74.20
12386;DHT22;6257;57.634;18.310;2023-05-27T16:53:58;16.20;74.10
12386;DHT22;6257;57.634;18.310;2023-05-27T16:56:26;16.20;74.20
12386;DHT22;6257;57.634;18.310;2023-05-27T17:01:22;16.10;74.50
12386;DHT22;6257;57.634;18.310;2023-05-27T17:03:49;16.00;74.40
12386;DHT22;6257;57.634;18.310;2023-05-27T17:06:16;17.60;76.20
12386;DHT22;6257;57.634;18.310;2023-05-27T17:08:44;15.90;75.40